18:58
Airports
Links
Donate
Help keep this website running!
PayPal
Bitcoin
METAR
PHJR 221853Z 06008KT 020V080 10SM FEW036 29/18 A3004 RMK AO2 SLP177 T02890183
Current Weather Conditions at PHJR
VFR 18:53:00 22-09-17
Automated station
Altimeter:30.04 hg
Temp:28.9°c 82°f
Dew point:18.3°c 64°f
Wind:8 knots, 9.2 mph, 4 m/s, from 60°
Visibility:10.0 statute miles
3600(FEW) A few
Past METAR reports
VFR 18:15:00 22-09-17
Automated station
Altimeter:30.03 hg
Temp:27.8°c 81°f
Dew point:18.9°c 64°f
Wind:7 knots, 8.1 mph, 4 m/s, from 50°
Visibility:10.0 statute miles
200(FEW) A few
PHJR 221815Z 05007KT 10SM FEW002 28/19 A3003 RMK AO2 T02780189
VFR 17:53:00 22-09-17
Automated station
Altimeter:30.03 hg
Temp:27.2°c 81°f
Dew point:18.9°c 64°f
Wind:4 knots, 4.6 mph, 2 m/s,
Variable direction
Visibility:10.0 statute miles
(CLR) Clear
PHJR 221753Z VRB04KT 10SM CLR 27/19 A3003 RMK AO2 SLP174 T02720189 10272 20228 53010
VFR 16:53:00 22-09-17
Automated station
Altimeter:30.02 hg
Temp:23.9°c 73°f
Dew point:18.3°c 64°f
Wind:5 knots, 5.8 mph, 3 m/s, from 40°
Visibility:10.0 statute miles
(CLR) Clear
PHJR 221653Z 04005KT 10SM CLR 24/18 A3002 RMK AO2 SLP170 T02390183
VFR 15:53:00 22-09-17
Automated station, no observer
Altimeter:30.00 hg
Temp:22.8°c 72°f
Dew point:17.8°c 63°f
Wind:4 knots, 4.6 mph, 2 m/s,
Variable direction
Visibility:10.0 statute miles
(CLR) Clear
PHJR 221553Z AUTO VRB04KT 10SM CLR 23/18 A3000 RMK AO2 SLP166 T02280178 TSNO
VFR 14:53:00 22-09-17
Automated station, no observer
Altimeter:30.00 hg
Temp:22.8°c 72°f
Dew point:17.8°c 63°f
Wind:4 knots, 4.6 mph, 2 m/s, from 60°
Visibility:10.0 statute miles
(CLR) Clear
PHJR 221453Z AUTO 06004KT 10SM CLR 23/18 A3000 RMK AO2 SLP164 T02280178 56012 TSNO
VFR 13:53:00 22-09-17
Automated station
Altimeter:30.00 hg
Temp:23.9°c 73°f
Dew point:18.3°c 64°f
Wind:5 knots, 5.8 mph, 3 m/s, from 40°
Visibility:10.0 statute miles
(CLR) Clear
PHJR 221353Z 04005KT 10SM CLR 24/18 A3000 RMK AO2 SLP166 T02390183
TAF
PHJR 221737Z 2218/2318 05005KT P6SM FEW045 FM222000 07011G17KT P6SM FEW045 FM230600 05005KT P6SM FEW045
Forecast at PHJR
18:00 22-09-17 to 20:00 22-09-17
Wind:5 Knots from 50°
Visibility:6.21 statute miles
4500FEW A few
FM 20:00 22-09-17 to 06:00 23-09-17
Wind:11 Knots from 70°
Visibility:6.21 statute miles
4500FEW A few
FM 06:00 23-09-17 to 18:00 23-09-17
Wind:5 Knots from 50°
Visibility:6.21 statute miles
4500FEW A few